createdAt,value
2018-09-18T00:01:34.412Z,36.60
2018-09-18T00:04:00.228Z,36.70
2018-09-18T00:06:26.055Z,36.70
2018-09-18T00:08:51.869Z,36.70
2018-09-18T00:11:17.685Z,36.70
2018-09-18T00:13:43.506Z,36.80
2018-09-18T00:16:09.328Z,36.70
2018-09-18T00:18:35.145Z,36.70
2018-09-18T00:21:00.967Z,36.70
2018-09-18T00:23:26.788Z,36.60
2018-09-18T00:25:52.605Z,36.60
2018-09-18T00:28:18.441Z,36.70
2018-09-18T00:30:44.244Z,36.70
2018-09-18T00:33:10.063Z,36.40
2018-09-18T00:35:35.881Z,36.70
2018-09-18T00:38:01.705Z,36.40
2018-09-18T00:40:28.161Z,36.50
2018-09-18T00:42:53.965Z,36.40
2018-09-18T00:45:19.776Z,36.40
2018-09-18T00:47:45.591Z,36.50
2018-09-18T00:50:11.420Z,36.40
2018-09-18T00:52:37.240Z,36.30
2018-09-18T00:55:03.067Z,36.30
2018-09-18T00:57:28.876Z,36.30
2018-09-18T00:59:54.694Z,36.30
2018-09-18T01:02:20.520Z,36.30
2018-09-18T01:04:46.340Z,36.40
2018-09-18T01:07:12.156Z,36.40
2018-09-18T01:09:37.978Z,36.40
2018-09-18T01:12:03.796Z,36.30
2018-09-18T01:14:29.616Z,36.40
2018-09-18T01:16:55.428Z,36.30
2018-09-18T01:19:21.252Z,36.30
2018-09-18T01:21:47.087Z,36.30
2018-09-18T01:24:12.891Z,36.20
2018-09-18T01:26:38.709Z,36.00
2018-09-18T01:29:04.529Z,36.10
2018-09-18T01:31:30.357Z,36.20
2018-09-18T01:33:56.166Z,36.10
2018-09-18T01:36:21.996Z,36.20
2018-09-18T01:38:47.812Z,36.00
2018-09-18T01:41:13.637Z,36.60
2018-09-18T01:43:39.459Z,36.20
2018-09-18T01:46:05.369Z,36.10
2018-09-18T01:48:31.184Z,36.30
2018-09-18T01:50:57.010Z,36.00
2018-09-18T01:53:22.824Z,36.10
2018-09-18T01:55:48.647Z,36.10
2018-09-18T01:58:14.567Z,35.90
2018-09-18T02:00:40.385Z,35.90
2018-09-18T02:03:06.205Z,35.90
2018-09-18T02:05:32.033Z,35.90
2018-09-18T02:07:57.845Z,36.00
2018-09-18T02:10:23.656Z,35.90
2018-09-18T02:12:49.480Z,36.00
2018-09-18T02:15:15.300Z,36.00
2018-09-18T02:17:41.120Z,35.80
2018-09-18T02:20:06.941Z,35.80
2018-09-18T02:22:32.770Z,35.80
2018-09-18T02:24:58.584Z,36.50
2018-09-18T02:27:24.408Z,35.90
2018-09-18T02:29:50.228Z,36.00
2018-09-18T02:32:16.045Z,35.90
2018-09-18T02:34:41.884Z,36.00
2018-09-18T02:37:07.788Z,35.80
2018-09-18T02:39:33.620Z,36.10
2018-09-18T02:41:59.526Z,36.10
2018-09-18T02:44:25.348Z,36.20
2018-09-18T02:46:51.275Z,36.10
2018-09-18T02:49:17.100Z,36.20
2018-09-18T02:51:42.908Z,36.30
2018-09-18T02:54:08.738Z,36.10
2018-09-18T02:56:34.544Z,36.20
2018-09-18T02:59:00.475Z,36.20
2018-09-18T03:01:26.284Z,36.20
2018-09-18T03:03:52.112Z,36.30
2018-09-18T03:06:17.933Z,36.30
2018-09-18T03:08:43.788Z,36.30
2018-09-18T03:11:09.708Z,36.20
2018-09-18T03:13:35.592Z,36.30
2018-09-18T03:16:01.413Z,36.30
2018-09-18T03:18:27.234Z,36.30
2018-09-18T03:20:53.099Z,36.30
2018-09-18T03:23:18.886Z,36.30
2018-09-18T03:25:44.694Z,36.20
2018-09-18T03:28:10.522Z,36.20
2018-09-18T03:30:36.341Z,36.20
2018-09-18T03:33:02.158Z,36.20
2018-09-18T03:35:27.971Z,36.30
2018-09-18T03:37:53.798Z,36.50
2018-09-18T03:40:19.709Z,36.30
2018-09-18T03:42:45.521Z,36.30
2018-09-18T03:45:11.361Z,36.40
2018-09-18T03:47:37.164Z,36.30
2018-09-18T03:50:02.988Z,37.00
2018-09-18T03:52:28.813Z,36.30
2018-09-18T03:54:54.622Z,36.40
2018-09-18T03:57:20.448Z,36.50
2018-09-18T03:59:46.269Z,36.60
2018-09-18T04:02:12.077Z,36.50
2018-09-18T04:04:37.892Z,36.50
2018-09-18T04:07:03.774Z,36.50
2018-09-18T04:09:29.644Z,36.60
2018-09-18T04:11:55.460Z,36.80
2018-09-18T04:14:21.280Z,36.60
2018-09-18T04:16:47.141Z,36.60
2018-09-18T04:19:13.034Z,37.10
2018-09-18T04:21:38.945Z,36.60
2018-09-18T04:24:04.762Z,36.60
2018-09-18T04:26:30.573Z,36.40
2018-09-18T04:28:56.403Z,36.50
2018-09-18T04:31:22.279Z,36.40
2018-09-18T04:33:48.860Z,36.70
2018-09-18T04:36:14.677Z,36.70
2018-09-18T04:38:40.492Z,36.80
2018-09-18T04:41:06.313Z,36.80
2018-09-18T04:43:32.131Z,36.80
2018-09-18T04:45:58.014Z,36.90
2018-09-18T04:48:23.777Z,36.90
2018-09-18T04:50:49.600Z,36.90
2018-09-18T04:53:15.445Z,36.90
2018-09-18T04:55:41.359Z,36.90
2018-09-18T04:58:07.166Z,36.90
2018-09-18T05:00:32.981Z,36.50
2018-09-18T05:02:58.798Z,36.60
2018-09-18T05:05:24.613Z,36.10
2018-09-18T05:07:50.437Z,35.70
2018-09-18T05:10:16.256Z,35.80
2018-09-18T05:12:42.085Z,35.90
2018-09-18T05:15:07.896Z,36.20
2018-09-18T05:17:33.713Z,36.30
2018-09-18T05:19:59.551Z,36.30
2018-09-18T05:22:25.501Z,36.40
2018-09-18T05:24:51.390Z,36.70
2018-09-18T05:27:17.208Z,36.60
2018-09-18T05:29:43.021Z,36.70
2018-09-18T05:32:08.842Z,36.80
2018-09-18T05:34:34.671Z,37.30
2018-09-18T05:37:00.481Z,37.90
2018-09-18T05:39:26.340Z,37.10
2018-09-18T05:41:57.000Z,36.80
2018-09-18T05:44:22.859Z,36.80
2018-09-18T05:46:48.676Z,36.90
2018-09-18T05:49:14.502Z,36.80
2018-09-18T05:51:40.414Z,36.70
2018-09-18T05:54:06.241Z,36.70
2018-09-18T05:56:32.085Z,36.60
2018-09-18T05:58:57.976Z,36.70
2018-09-18T06:01:23.795Z,36.70
2018-09-18T06:03:49.605Z,36.60
2018-09-18T06:06:15.438Z,36.90
2018-09-18T06:08:41.261Z,37.10
2018-09-18T06:11:07.100Z,37.00
2018-09-18T06:13:32.988Z,36.90
2018-09-18T06:15:58.825Z,37.60
2018-09-18T06:18:24.913Z,37.70
2018-09-18T06:20:50.843Z,38.30
2018-09-18T06:23:16.764Z,38.10
2018-09-18T06:25:42.620Z,38.40
2018-09-18T06:28:08.492Z,38.30
2018-09-18T06:30:34.364Z,37.90
2018-09-18T06:33:00.182Z,37.70
2018-09-18T06:35:26.112Z,37.80
2018-09-18T06:37:52.025Z,37.40
2018-09-18T06:40:18.041Z,37.40
2018-09-18T06:42:43.852Z,37.20
2018-09-18T06:45:09.664Z,37.10
2018-09-18T06:47:35.487Z,36.90
2018-09-18T06:50:01.297Z,37.20
2018-09-18T06:52:27.119Z,36.90
2018-09-18T06:54:52.944Z,37.10
2018-09-18T06:57:18.756Z,36.80
2018-09-18T06:59:44.583Z,36.70
2018-09-18T07:02:10.401Z,36.70
2018-09-18T07:04:36.228Z,36.60
2018-09-18T07:07:02.048Z,36.60
2018-09-18T07:09:27.959Z,36.60
2018-09-18T07:11:53.779Z,36.50
2018-09-18T07:14:19.623Z,36.50
2018-09-18T07:16:45.530Z,36.50
2018-09-18T07:19:11.352Z,36.50
2018-09-18T07:21:37.168Z,36.40
2018-09-18T07:24:02.997Z,36.40
2018-09-18T07:26:28.804Z,36.40
2018-09-18T07:28:54.626Z,36.40
2018-09-18T07:31:20.449Z,36.40
2018-09-18T07:33:46.319Z,36.40
2018-09-18T07:36:12.259Z,36.40
2018-09-18T07:38:38.011Z,36.40
2018-09-18T07:41:03.880Z,36.40
2018-09-18T07:43:29.644Z,36.40
2018-09-18T07:45:55.460Z,36.40
2018-09-18T07:48:21.280Z,36.40
2018-09-18T07:50:47.098Z,36.40
2018-09-18T07:53:12.920Z,36.50
2018-09-18T07:55:38.739Z,36.40
2018-09-18T07:58:04.552Z,36.40
2018-09-18T08:00:30.376Z,36.40
2018-09-18T08:02:56.192Z,36.40
2018-09-18T08:05:22.012Z,36.40
2018-09-18T08:07:47.842Z,36.40
2018-09-18T08:10:13.658Z,36.40
2018-09-18T08:12:39.486Z,36.40
2018-09-18T08:15:05.297Z,36.40
2018-09-18T08:17:31.114Z,36.40
2018-09-18T08:19:56.931Z,36.40
2018-09-18T08:22:22.758Z,36.40
2018-09-18T08:24:48.577Z,36.40
2018-09-18T08:27:14.401Z,36.40
2018-09-18T08:29:40.213Z,36.50
2018-09-18T08:32:06.032Z,36.40
2018-09-18T08:34:31.853Z,36.40
2018-09-18T08:36:57.693Z,37.00
2018-09-18T08:39:23.484Z,36.40
2018-09-18T08:41:49.316Z,36.40
2018-09-18T08:44:15.253Z,36.40
2018-09-18T08:46:41.052Z,36.40
2018-09-18T08:49:06.875Z,36.40
2018-09-18T08:51:32.699Z,36.40
2018-09-18T08:53:58.516Z,36.50
2018-09-18T08:56:24.353Z,36.50
2018-09-18T08:58:50.287Z,36.50
2018-09-18T09:01:16.076Z,36.50
2018-09-18T09:03:42.021Z,36.50
2018-09-18T09:06:07.813Z,36.50
2018-09-18T09:08:33.649Z,36.50
2018-09-18T09:10:59.513Z,36.60
2018-09-18T09:13:25.283Z,36.60
2018-09-18T09:15:51.096Z,36.60
2018-09-18T09:18:17.116Z,36.60
2018-09-18T09:20:42.845Z,36.70
2018-09-18T09:23:08.682Z,36.70
2018-09-18T09:25:34.592Z,36.70
2018-09-18T09:28:00.399Z,36.70
2018-09-18T09:30:26.245Z,36.70
2018-09-18T09:32:52.163Z,36.80
2018-09-18T09:35:18.098Z,36.80
2018-09-18T09:37:43.982Z,36.80
2018-09-18T09:40:09.792Z,36.80
2018-09-18T09:42:35.639Z,36.80
2018-09-18T09:45:01.627Z,36.90
2018-09-18T09:47:27.356Z,36.80
2018-09-18T09:49:53.173Z,36.80
2018-09-18T09:52:18.995Z,36.90
2018-09-18T09:54:44.815Z,36.90
2018-09-18T09:57:10.647Z,37.00
2018-09-18T09:59:36.458Z,37.00
2018-09-18T10:02:02.272Z,37.00
2018-09-18T10:04:28.095Z,37.00
2018-09-18T10:06:53.916Z,37.00
2018-09-18T10:09:19.765Z,37.10
2018-09-18T10:11:45.684Z,37.00
2018-09-18T10:14:11.492Z,37.10
2018-09-18T10:16:37.297Z,37.10
2018-09-18T10:19:03.118Z,37.10
2018-09-18T10:21:28.940Z,37.10
2018-09-18T10:23:54.776Z,37.20
2018-09-18T10:26:20.642Z,37.20
2018-09-18T10:28:46.396Z,37.30
2018-09-18T10:31:12.219Z,37.30
2018-09-18T10:33:38.043Z,37.30
2018-09-18T10:36:03.866Z,37.30
2018-09-18T10:38:33.258Z,37.30
2018-09-18T10:40:59.162Z,37.40
2018-09-18T10:43:24.925Z,37.40
2018-09-18T10:45:50.849Z,37.40
2018-09-18T10:48:16.787Z,37.50
2018-09-18T10:50:42.879Z,37.60
2018-09-18T10:53:09.304Z,37.60
2018-09-18T10:55:39.242Z,37.80
2018-09-18T10:58:05.038Z,37.60
2018-09-18T11:03:03.163Z,37.70
2018-09-18T11:05:29.063Z,37.80
2018-09-18T11:07:54.961Z,37.90
2018-09-18T11:10:21.557Z,37.90
2018-09-18T11:12:47.423Z,37.90
2018-09-18T11:15:13.280Z,37.90
2018-09-18T11:17:39.176Z,38.00
2018-09-18T11:20:05.000Z,38.00
2018-09-18T11:22:30.924Z,38.00
2018-09-18T11:24:56.729Z,38.00
2018-09-18T11:27:22.567Z,38.00
2018-09-18T11:29:48.415Z,38.00
2018-09-18T11:32:15.351Z,37.90
2018-09-18T11:34:41.252Z,38.00
2018-09-18T11:37:07.181Z,38.00
2018-09-18T11:39:33.004Z,38.00
2018-09-18T11:41:58.905Z,38.10
2018-09-18T11:46:57.310Z,38.10
2018-09-18T11:51:57.333Z,38.20
2018-09-18T11:54:23.147Z,38.30
2018-09-18T12:01:51.890Z,38.20
2018-09-18T12:09:21.721Z,38.40
2018-09-18T12:14:19.936Z,38.40
2018-09-18T12:16:45.876Z,39.00
2018-09-18T12:24:16.412Z,38.40
2018-09-18T12:29:14.184Z,38.40
2018-09-18T12:31:40.047Z,38.40
2018-09-18T12:44:13.280Z,38.40
2018-09-18T12:46:45.345Z,38.50
2018-09-18T12:49:11.344Z,38.40
2018-09-18T12:59:15.460Z,38.40
2018-09-18T13:01:41.265Z,38.40
2018-09-18T13:04:09.337Z,38.30
2018-09-18T13:06:35.379Z,38.30
2018-09-18T13:09:01.182Z,38.30
2018-09-18T13:16:29.933Z,38.20
2018-09-18T13:21:27.779Z,38.00
2018-09-18T13:31:28.283Z,38.00
2018-09-18T13:41:33.452Z,38.00
2018-09-18T13:56:39.196Z,38.00
2018-09-18T14:01:36.779Z,38.00
2018-09-18T14:04:02.590Z,38.00
2018-09-18T14:09:03.532Z,37.90
2018-09-18T14:11:29.367Z,37.90
2018-09-18T14:21:30.705Z,37.80
2018-09-18T14:23:56.609Z,37.80
2018-09-18T14:28:57.554Z,37.80
2018-09-18T14:31:24.725Z,37.80
2018-09-18T14:33:50.717Z,37.80
2018-09-18T14:36:16.695Z,37.80
2018-09-18T14:38:43.309Z,37.80
2018-09-18T14:41:09.242Z,37.80
2018-09-18T14:43:35.256Z,37.70
2018-09-18T14:46:01.267Z,37.60
2018-09-18T14:48:27.520Z,37.60
2018-09-18T14:50:53.482Z,37.60
2018-09-18T14:53:19.415Z,37.50
2018-09-18T14:55:45.275Z,37.40
2018-09-18T14:58:11.187Z,37.40
2018-09-18T15:00:37.047Z,37.40
2018-09-18T15:03:03.722Z,37.40
2018-09-18T15:05:29.628Z,37.40
2018-09-18T15:07:55.551Z,37.30
2018-09-18T15:13:51.326Z,37.30
2018-09-18T15:16:17.232Z,37.60
2018-09-18T15:18:43.098Z,37.70
2018-09-18T15:21:09.004Z,37.70
2018-09-18T15:23:35.220Z,37.60
2018-09-18T15:26:01.069Z,37.50
2018-09-18T15:28:26.974Z,37.40
2018-09-18T15:30:52.940Z,37.30
2018-09-18T15:33:18.951Z,37.30
2018-09-18T15:35:45.645Z,37.30
2018-09-18T15:38:11.516Z,37.20
2018-09-18T15:40:38.112Z,37.20
2018-09-18T15:43:04.074Z,37.10
2018-09-18T15:45:30.158Z,37.10
2018-09-18T15:47:56.152Z,37.10
2018-09-18T15:50:22.037Z,37.00
2018-09-18T15:52:47.928Z,37.10
2018-09-18T15:55:13.884Z,37.10
2018-09-18T15:57:39.803Z,37.10
2018-09-18T16:00:05.712Z,37.00
2018-09-18T16:02:31.614Z,37.10
2018-09-18T16:04:57.536Z,37.00
2018-09-18T16:07:23.466Z,37.00
2018-09-18T16:09:49.442Z,37.00
2018-09-18T16:12:16.047Z,36.90
2018-09-18T16:14:41.952Z,36.90
2018-09-18T16:17:07.909Z,37.00
2018-09-18T16:19:33.786Z,36.90
2018-09-18T16:21:59.709Z,36.90
2018-09-18T16:24:25.811Z,36.90
2018-09-18T16:26:51.668Z,36.90
2018-09-18T16:29:17.647Z,36.90
2018-09-18T16:31:43.546Z,36.90
2018-09-18T16:34:10.170Z,36.80
2018-09-18T16:36:36.817Z,36.90
2018-09-18T16:39:03.429Z,36.80
2018-09-18T16:41:29.356Z,36.80
2018-09-18T16:43:55.305Z,36.80
2018-09-18T16:46:21.922Z,36.70
2018-09-18T16:48:47.865Z,36.70
2018-09-18T16:51:14.503Z,36.70
2018-09-18T16:53:41.134Z,36.70
2018-09-18T16:56:07.744Z,36.70
2018-09-18T16:58:33.824Z,36.60
2018-09-18T17:00:59.629Z,36.70
2018-09-18T17:03:26.287Z,37.00
2018-09-18T17:05:52.199Z,36.90
2018-09-18T17:08:18.095Z,36.90
2018-09-18T17:10:44.734Z,36.80
2018-09-18T17:13:11.386Z,36.80
2018-09-18T17:15:37.258Z,36.80
2018-09-18T17:18:03.184Z,36.80
2018-09-18T17:20:29.101Z,36.80
2018-09-18T17:22:55.039Z,36.70
2018-09-18T17:25:20.934Z,36.80
2018-09-18T17:27:46.937Z,36.70
2018-09-18T17:30:12.824Z,36.70
2018-09-18T17:32:39.525Z,36.70
2018-09-18T17:35:05.535Z,36.70
2018-09-18T17:37:31.374Z,36.80
2018-09-18T17:39:57.264Z,36.80
2018-09-18T17:42:23.119Z,36.80
2018-09-18T17:44:49.037Z,36.90
2018-09-18T17:47:15.674Z,36.80
2018-09-18T17:49:41.590Z,36.80
2018-09-18T17:52:07.402Z,36.70
2018-09-18T17:54:33.215Z,33.90
2018-09-18T17:56:59.039Z,32.20
2018-09-18T17:59:24.938Z,32.60
2018-09-18T18:01:50.679Z,32.30
2018-09-18T18:04:16.502Z,32.80
2018-09-18T18:06:42.323Z,32.60
2018-09-18T18:09:08.238Z,32.90
2018-09-18T18:11:34.125Z,32.90
2018-09-18T18:13:59.977Z,32.90
2018-09-18T18:16:25.943Z,33.10
2018-09-18T18:18:51.863Z,32.80
2018-09-18T18:21:17.824Z,32.60
2018-09-18T18:23:43.709Z,32.50
2018-09-18T18:26:10.376Z,31.90
2018-09-18T18:28:36.313Z,32.00
2018-09-18T18:31:02.367Z,31.70
2018-09-18T18:33:28.231Z,31.50
2018-09-18T18:35:54.124Z,31.20
2018-09-18T18:38:20.062Z,31.00
2018-09-18T18:40:46.738Z,30.60
2018-09-18T18:43:12.649Z,30.50
2018-09-18T18:45:38.617Z,30.40
2018-09-18T18:48:05.525Z,30.30
2018-09-18T18:50:31.318Z,30.30
2018-09-18T18:52:57.929Z,33.20
2018-09-18T18:55:23.856Z,33.20
2018-09-18T18:57:49.767Z,32.40
2018-09-18T19:00:16.407Z,36.50
2018-09-18T19:02:42.232Z,36.40
2018-09-18T19:05:08.152Z,34.50
2018-09-18T19:07:34.085Z,33.60
2018-09-18T19:10:00.035Z,34.30
2018-09-18T19:12:26.734Z,34.90
2018-09-18T19:14:52.574Z,34.90
2018-09-18T19:17:18.505Z,33.80
2018-09-18T19:19:44.417Z,32.90
2018-09-18T19:22:10.329Z,34.20
2018-09-18T19:24:36.273Z,37.00
2018-09-18T19:27:02.243Z,38.70
2018-09-18T19:29:28.145Z,36.30
2018-09-18T19:31:54.045Z,37.60
2018-09-18T19:34:20.654Z,38.00
2018-09-18T19:36:46.576Z,38.00
2018-09-18T19:39:12.564Z,36.60
2018-09-18T19:41:39.126Z,37.10
2018-09-18T19:44:04.950Z,36.90
2018-09-18T19:46:30.866Z,39.20
2018-09-18T19:48:56.822Z,40.50
2018-09-18T19:51:22.720Z,39.10
2018-09-18T19:53:48.647Z,37.40
2018-09-18T19:56:14.553Z,37.60
2018-09-18T19:58:40.484Z,40.10
2018-09-18T20:01:06.405Z,39.40
2018-09-18T20:03:32.318Z,38.50
2018-09-18T20:05:58.147Z,40.40
2018-09-18T20:08:24.091Z,39.40
2018-09-18T20:10:49.996Z,37.70
2018-09-18T20:13:16.619Z,41.10
2018-09-18T20:15:42.596Z,41.10
2018-09-18T20:18:09.236Z,39.50
2018-09-18T20:20:35.877Z,38.00
2018-09-18T20:23:01.737Z,38.10
2018-09-18T20:25:27.566Z,41.10
2018-09-18T20:27:53.494Z,40.20
2018-09-18T20:30:19.418Z,38.60
2018-09-18T20:32:45.337Z,40.90
2018-09-18T20:35:11.369Z,42.20
2018-09-18T20:37:37.276Z,42.20
2018-09-18T20:40:03.096Z,39.70
2018-09-18T20:42:29.099Z,40.40
2018-09-18T20:44:54.960Z,42.10
2018-09-18T20:47:20.913Z,42.80
2018-09-18T20:49:46.783Z,40.60
2018-09-18T20:52:12.741Z,39.50
2018-09-18T20:54:39.350Z,43.10
2018-09-18T20:57:05.304Z,43.10
2018-09-18T20:59:31.912Z,41.50
2018-09-18T21:01:57.752Z,41.50
2018-09-18T21:04:23.637Z,41.00
2018-09-18T21:06:49.452Z,40.60
2018-09-18T21:09:15.288Z,40.30
2018-09-18T21:11:41.119Z,40.20
2018-09-18T21:14:07.027Z,40.00
2018-09-18T21:16:32.848Z,40.10
2018-09-18T21:18:58.758Z,40.00
2018-09-18T21:21:24.582Z,40.00
2018-09-18T21:23:50.506Z,39.90
2018-09-18T21:26:16.329Z,39.90
2018-09-18T21:28:42.329Z,39.90
2018-09-18T21:31:08.169Z,39.90
2018-09-18T21:33:33.997Z,39.70
2018-09-18T21:36:00.061Z,39.80
2018-09-18T21:38:25.929Z,39.90
2018-09-18T21:40:51.751Z,39.70
2018-09-18T21:43:17.590Z,39.70
2018-09-18T21:45:43.522Z,39.70
2018-09-18T21:48:09.429Z,39.70
2018-09-18T21:50:35.341Z,39.70
2018-09-18T21:53:01.178Z,39.60
2018-09-18T21:55:27.123Z,39.60
2018-09-18T21:57:53.018Z,39.70
2018-09-18T22:00:18.943Z,39.80
2018-09-18T22:02:44.866Z,39.80
2018-09-18T22:05:10.760Z,40.40
2018-09-18T22:07:36.657Z,39.80
2018-09-18T22:10:02.524Z,39.90
2018-09-18T22:12:28.457Z,40.00
2018-09-18T22:14:54.352Z,40.10
2018-09-18T22:17:20.326Z,40.10
2018-09-18T22:19:46.932Z,40.30
2018-09-18T22:22:12.865Z,40.30
2018-09-18T22:24:38.762Z,40.30
2018-09-18T22:27:04.777Z,40.40
2018-09-18T22:29:30.600Z,40.40
2018-09-18T22:31:56.520Z,40.40
2018-09-18T22:34:22.333Z,40.50
2018-09-18T22:36:48.159Z,40.50
2018-09-18T22:39:14.022Z,40.50
2018-09-18T22:41:39.917Z,40.50
2018-09-18T22:44:05.826Z,40.50
2018-09-18T22:46:31.767Z,40.60
2018-09-18T22:48:57.704Z,40.60
2018-09-18T22:51:23.610Z,40.70
2018-09-18T22:53:50.310Z,40.60
2018-09-18T22:56:16.193Z,40.70
2018-09-18T22:58:46.111Z,40.60
2018-09-18T23:01:12.704Z,40.70
2018-09-18T23:03:38.521Z,40.70
2018-09-18T23:06:04.352Z,40.80
2018-09-18T23:08:30.271Z,40.80
2018-09-18T23:10:56.079Z,40.80
2018-09-18T23:13:21.912Z,41.60
2018-09-18T23:15:47.909Z,40.80
2018-09-18T23:18:13.743Z,40.80
2018-09-18T23:20:39.575Z,41.00
2018-09-18T23:23:05.516Z,41.00
2018-09-18T23:25:31.468Z,41.10
2018-09-18T23:27:58.045Z,41.20
2018-09-18T23:30:24.015Z,41.20
2018-09-18T23:32:50.600Z,41.20
2018-09-18T23:35:16.431Z,41.20
2018-09-18T23:37:42.252Z,41.30
2018-09-18T23:40:08.068Z,41.20
2018-09-18T23:42:33.887Z,41.20
2018-09-18T23:44:59.812Z,41.30
2018-09-18T23:47:25.642Z,41.40
2018-09-18T23:49:51.631Z,41.40
2018-09-18T23:52:17.525Z,41.30
2018-09-18T23:54:44.131Z,41.50
2018-09-18T23:57:10.030Z,41.40
2018-09-18T23:59:35.966Z,41.40
